createdAt,value
2019-01-16T00:00:43.835Z,19.73
2019-01-16T00:03:29.202Z,19.20
2019-01-16T00:06:15.992Z,12.50
2019-01-16T00:09:01.664Z,15.30
2019-01-16T00:11:56.760Z,14.07
2019-01-16T00:14:53.135Z,14.20
2019-01-16T00:17:48.722Z,15.67
2019-01-16T00:20:53.497Z,16.30
2019-01-16T00:23:45.912Z,19.40
2019-01-16T00:26:25.719Z,15.23
2019-01-16T00:29:01.712Z,15.70
2019-01-16T00:32:06.745Z,16.27
2019-01-16T00:34:56.366Z,14.73
2019-01-16T00:37:41.927Z,14.10
2019-01-16T00:40:34.877Z,12.57
2019-01-16T00:43:39.942Z,18.70
2019-01-16T00:46:25.443Z,13.53
2019-01-16T00:49:18.089Z,14.63
2019-01-16T00:52:02.495Z,14.87
2019-01-16T00:55:07.299Z,16.90
2019-01-16T00:57:57.615Z,14.20
2019-01-16T01:00:36.888Z,13.67
2019-01-16T01:03:36.198Z,13.60
2019-01-16T01:06:22.722Z,14.70
2019-01-16T01:09:08.143Z,17.00
2019-01-16T01:11:54.977Z,14.47
2019-01-16T01:14:53.540Z,15.87
2019-01-16T01:17:44.375Z,21.07
2019-01-16T01:20:37.003Z,13.70
2019-01-16T01:23:22.772Z,13.37
2019-01-16T01:26:15.516Z,14.47
2019-01-16T01:29:13.936Z,11.93
2019-01-16T01:32:09.793Z,15.73
2019-01-16T01:34:56.183Z,10.97
2019-01-16T01:37:45.889Z,16.13
2019-01-16T01:40:31.104Z,14.73
2019-01-16T01:43:16.672Z,14.57
2019-01-16T01:46:09.362Z,11.67
2019-01-16T01:48:50.511Z,20.57
2019-01-16T01:51:55.783Z,18.57
2019-01-16T01:54:36.521Z,16.67
2019-01-16T01:57:32.677Z,20.37
2019-01-16T02:00:29.096Z,13.83
2019-01-16T02:03:14.342Z,15.60
2019-01-16T02:06:13.055Z,16.20
2019-01-16T02:08:47.011Z,16.00
2019-01-16T02:11:30.594Z,15.80
2019-01-16T02:14:20.171Z,16.50
2019-01-16T02:17:06.922Z,10.77
2019-01-16T02:19:53.828Z,13.87
2019-01-16T02:22:39.216Z,15.03
2019-01-16T02:25:35.391Z,14.37
2019-01-16T02:28:37.118Z,14.67
2019-01-16T02:31:24.033Z,15.07
2019-01-16T02:34:10.825Z,14.87
2019-01-16T02:37:03.613Z,9.77
2019-01-16T02:39:53.176Z,15.43
2019-01-16T02:42:52.513Z,17.10
2019-01-16T02:45:38.090Z,10.53
2019-01-16T02:48:24.926Z,17.23
2019-01-16T02:51:10.865Z,13.23
2019-01-16T02:53:56.340Z,15.93
2019-01-16T02:56:47.001Z,11.50
2019-01-16T02:59:20.939Z,10.63
2019-01-16T03:02:04.779Z,16.83
2019-01-16T03:04:41.420Z,13.53
2019-01-16T03:07:29.056Z,13.53
2019-01-16T03:10:21.866Z,14.67
2019-01-16T03:13:06.608Z,13.60
2019-01-16T03:15:53.510Z,12.47
2019-01-16T03:18:38.825Z,12.70
2019-01-16T03:21:24.773Z,10.83
2019-01-16T03:24:08.112Z,16.60
2019-01-16T03:26:41.078Z,17.27
2019-01-16T03:29:46.084Z,11.53
2019-01-16T03:32:36.422Z,11.73
2019-01-16T03:35:41.993Z,20.23
2019-01-16T03:38:41.157Z,12.23
2019-01-16T03:41:14.398Z,12.30
2019-01-16T03:44:10.414Z,14.67
2019-01-16T03:47:03.354Z,15.97
2019-01-16T03:50:02.326Z,13.80
2019-01-16T03:52:47.819Z,19.27
2019-01-16T03:55:28.384Z,12.50
2019-01-16T03:58:11.298Z,11.10
2019-01-16T04:01:00.939Z,13.07
2019-01-16T04:03:54.789Z,12.77
2019-01-16T04:06:50.468Z,11.10
2019-01-16T04:09:35.999Z,10.57
2019-01-16T04:12:22.868Z,10.63
2019-01-16T04:15:12.637Z,10.20
2019-01-16T04:18:08.676Z,9.97
2019-01-16T04:21:10.455Z,11.33
2019-01-16T04:23:47.525Z,10.93
2019-01-16T04:26:40.487Z,13.73
2019-01-16T04:29:27.329Z,8.57
2019-01-16T04:32:32.377Z,13.47
2019-01-16T04:35:21.807Z,10.33
2019-01-16T04:38:14.981Z,9.50
2019-01-16T04:40:48.875Z,10.30
2019-01-16T04:43:36.819Z,7.60
2019-01-16T04:46:22.475Z,11.10
2019-01-16T04:49:12.083Z,13.50
2019-01-16T04:51:55.532Z,9.37
2019-01-16T04:54:39.332Z,7.27
2019-01-16T04:57:38.260Z,6.13
2019-01-16T05:00:43.776Z,7.47
2019-01-16T05:03:29.294Z,8.33
2019-01-16T05:06:34.268Z,9.13
2019-01-16T05:09:21.344Z,6.77
2019-01-16T05:12:20.212Z,8.47
2019-01-16T05:15:12.960Z,7.90
2019-01-16T05:17:58.384Z,10.97
2019-01-16T05:20:43.803Z,6.50
2019-01-16T05:23:28.416Z,10.70
2019-01-16T05:26:18.353Z,12.97
2019-01-16T05:29:05.339Z,8.90
2019-01-16T05:31:47.863Z,9.23
2019-01-16T05:34:35.735Z,8.63
2019-01-16T05:37:28.193Z,5.23
2019-01-16T05:40:13.988Z,7.47
2019-01-16T05:43:11.420Z,8.70
2019-01-16T05:46:00.792Z,7.73
2019-01-16T05:48:41.803Z,5.03
2019-01-16T05:51:43.401Z,6.40
2019-01-16T05:54:20.528Z,10.00
2019-01-16T05:57:19.558Z,9.43
2019-01-16T06:00:12.319Z,6.40
2019-01-16T06:03:02.312Z,10.27
2019-01-16T06:05:55.062Z,8.97
2019-01-16T06:08:32.261Z,7.87
2019-01-16T06:11:17.408Z,6.63
2019-01-16T06:14:02.875Z,10.33
2019-01-16T06:16:55.540Z,7.70
2019-01-16T06:19:40.760Z,8.77
2019-01-16T06:22:33.264Z,9.13
2019-01-16T06:25:20.358Z,5.23
2019-01-16T06:28:19.481Z,6.20
2019-01-16T06:31:09.163Z,6.77
2019-01-16T06:33:47.979Z,8.00
2019-01-16T06:36:33.517Z,9.20
2019-01-16T06:39:26.975Z,12.80
2019-01-16T06:42:05.819Z,6.00
2019-01-16T06:44:55.797Z,7.83
2019-01-16T06:47:33.250Z,5.90
2019-01-16T06:50:16.481Z,3.27
2019-01-16T06:53:09.140Z,5.50
2019-01-16T06:55:57.207Z,5.67
2019-01-16T06:58:38.979Z,4.47
2019-01-16T07:01:35.860Z,2.77
2019-01-16T07:04:27.449Z,3.93
2019-01-16T07:07:13.341Z,6.53
2019-01-16T07:10:09.307Z,6.37
2019-01-16T07:12:54.823Z,4.00
2019-01-16T07:15:53.786Z,2.63
2019-01-16T07:18:43.254Z,5.17
2019-01-16T07:21:36.300Z,5.27
2019-01-16T07:24:41.104Z,3.93
2019-01-16T07:27:40.130Z,3.47
2019-01-16T07:30:32.103Z,7.97
2019-01-16T07:33:15.596Z,3.97
2019-01-16T07:35:53.147Z,7.90
2019-01-16T07:38:38.892Z,4.60
2019-01-16T07:41:34.558Z,6.53
2019-01-16T07:44:20.020Z,6.03
2019-01-16T07:47:05.480Z,8.77
2019-01-16T07:49:50.978Z,7.97
2019-01-16T07:52:40.356Z,9.23
2019-01-16T07:55:25.992Z,11.57
2019-01-16T07:58:24.874Z,11.30
2019-01-16T08:01:12.908Z,11.40
2019-01-16T08:04:05.871Z,13.13
2019-01-16T08:07:01.613Z,11.67
2019-01-16T08:09:54.393Z,17.13
2019-01-16T08:12:41.422Z,18.30
2019-01-16T08:15:27.982Z,10.50
2019-01-16T08:18:13.540Z,13.50
2019-01-16T08:21:09.340Z,14.33
2019-01-16T08:23:59.385Z,14.30
2019-01-16T08:26:45.531Z,13.63
2019-01-16T08:29:50.278Z,14.37
2019-01-16T08:32:49.089Z,12.50
2019-01-16T08:35:44.836Z,16.07
2019-01-16T08:38:28.962Z,22.80
2019-01-16T08:41:21.677Z,16.87
2019-01-16T08:44:17.484Z,15.53
2019-01-16T08:46:51.490Z,12.77
2019-01-16T08:49:50.568Z,17.23
2019-01-16T08:52:49.849Z,15.03
2019-01-16T08:55:45.864Z,16.47
2019-01-16T08:58:31.094Z,18.80
2019-01-16T09:01:16.838Z,14.80
2019-01-16T09:04:09.412Z,16.93
2019-01-16T09:07:05.036Z,17.13
2019-01-16T09:09:57.738Z,17.33
2019-01-16T09:12:56.592Z,16.83
2019-01-16T09:15:42.096Z,24.67
2019-01-16T09:18:28.442Z,20.47
2019-01-16T09:21:11.611Z,21.67
2019-01-16T09:24:00.345Z,20.57
2019-01-16T09:26:47.234Z,20.33
2019-01-16T09:29:27.689Z,21.00
2019-01-16T09:32:14.944Z,20.43
2019-01-16T09:34:59.983Z,19.77
2019-01-16T09:37:49.537Z,25.13
2019-01-16T09:40:36.068Z,18.93
2019-01-16T09:43:25.687Z,18.97
2019-01-16T09:46:12.703Z,16.43
2019-01-16T09:48:59.479Z,17.70
2019-01-16T09:51:46.309Z,16.27
2019-01-16T09:54:38.769Z,15.47
2019-01-16T09:57:24.227Z,16.57
2019-01-16T10:00:05.387Z,16.60
2019-01-16T10:02:50.871Z,16.07
2019-01-16T10:05:38.457Z,17.07
2019-01-16T10:08:23.968Z,16.97
2019-01-16T10:11:29.012Z,14.73
2019-01-16T10:14:27.957Z,16.87
2019-01-16T10:17:21.649Z,17.07
2019-01-16T10:20:23.314Z,16.87
2019-01-16T10:22:59.587Z,15.37
2019-01-16T10:25:46.350Z,14.30
2019-01-16T10:28:31.855Z,18.43
2019-01-16T10:31:24.595Z,17.87
2019-01-16T10:34:08.834Z,15.93
2019-01-16T10:36:55.655Z,18.77
2019-01-16T10:39:51.718Z,17.37
2019-01-16T10:42:45.125Z,17.50
2019-01-16T10:45:34.550Z,16.43
2019-01-16T10:48:14.705Z,17.57
2019-01-16T10:51:16.820Z,16.17
2019-01-16T10:57:16.938Z,16.73
2019-01-16T11:00:09.842Z,15.87
2019-01-16T11:02:59.250Z,17.93
2019-01-16T11:05:55.432Z,17.03
2019-01-16T11:08:51.250Z,17.57
2019-01-16T11:11:36.550Z,17.90
2019-01-16T11:14:22.290Z,19.73
2019-01-16T11:17:15.095Z,19.13
2019-01-16T11:20:07.823Z,17.33
2019-01-16T11:22:55.188Z,17.00
2019-01-16T11:25:42.042Z,16.77
2019-01-16T11:28:25.377Z,16.23
2019-01-16T11:31:08.250Z,16.40
2019-01-16T11:33:53.306Z,17.53
2019-01-16T11:36:33.257Z,15.70
2019-01-16T11:39:20.132Z,17.23
2019-01-16T11:42:07.819Z,17.77
2019-01-16T11:45:09.594Z,17.33
2019-01-16T11:48:02.454Z,17.27
2019-01-16T11:50:44.782Z,15.60
2019-01-16T11:53:35.842Z,16.13
2019-01-16T11:56:14.282Z,18.33
2019-01-16T11:59:01.398Z,13.37
2019-01-16T12:01:49.391Z,14.50
2019-01-16T12:04:39.011Z,15.80
2019-01-16T12:07:24.354Z,16.67
2019-01-16T12:10:02.469Z,17.60
2019-01-16T12:12:47.305Z,18.17
2019-01-16T12:15:33.186Z,19.57
2019-01-16T12:18:28.802Z,20.20
2019-01-16T12:21:13.981Z,19.57
2019-01-16T12:23:52.602Z,21.93
2019-01-16T12:26:42.054Z,18.53
2019-01-16T12:29:25.697Z,19.23
2019-01-16T12:32:12.672Z,19.13
2019-01-16T12:35:05.711Z,16.90
2019-01-16T12:37:52.612Z,20.50
2019-01-16T12:40:39.514Z,18.23
2019-01-16T12:43:41.641Z,20.23
2019-01-16T12:46:37.455Z,19.03
2019-01-16T12:49:39.377Z,19.13
2019-01-16T12:52:44.405Z,20.63
2019-01-16T12:55:35.060Z,21.57
2019-01-16T12:58:20.587Z,22.40
2019-01-16T13:00:58.367Z,23.30
2019-01-16T13:03:54.070Z,21.13
2019-01-16T13:06:31.604Z,21.43
2019-01-16T13:09:10.579Z,21.73
2019-01-16T13:12:07.611Z,24.07
2019-01-16T13:14:46.264Z,23.60
2019-01-16T13:17:33.055Z,21.00
2019-01-16T13:20:37.994Z,22.70
2019-01-16T13:23:30.578Z,22.63
2019-01-16T13:26:09.656Z,22.00
2019-01-16T13:28:54.947Z,24.10
2019-01-16T13:31:47.461Z,20.03
2019-01-16T13:34:49.305Z,22.97
2019-01-16T13:37:36.070Z,20.93
2019-01-16T13:40:27.494Z,20.77
2019-01-16T13:43:14.620Z,24.60
2019-01-16T13:45:56.201Z,18.53
2019-01-16T13:48:35.503Z,22.73
2019-01-16T13:51:17.432Z,20.90
2019-01-16T13:53:59.400Z,20.53
2019-01-16T13:56:44.806Z,22.03
2019-01-16T13:59:50.096Z,19.37
2019-01-16T14:02:37.704Z,19.57
2019-01-16T14:05:24.850Z,21.37
2019-01-16T14:08:03.217Z,20.70
2019-01-16T14:10:55.589Z,22.03
2019-01-16T14:13:52.950Z,20.17
2019-01-16T14:16:50.750Z,22.93
2019-01-16T14:19:40.196Z,21.27
2019-01-16T14:22:29.600Z,24.80
2019-01-16T14:25:16.410Z,23.57
2019-01-16T14:28:02.819Z,23.90
2019-01-16T14:30:52.502Z,23.30
2019-01-16T14:33:37.774Z,22.57
2019-01-16T14:36:30.894Z,21.77
2019-01-16T14:39:32.828Z,25.93
2019-01-16T14:42:25.674Z,22.97
2019-01-16T14:45:11.145Z,26.50
2019-01-16T14:47:49.730Z,27.13
2019-01-16T14:50:39.126Z,23.73
2019-01-16T14:53:23.955Z,26.57
2019-01-16T14:56:15.914Z,28.00
2019-01-16T14:59:14.849Z,26.90
2019-01-16T15:02:11.385Z,26.73
2019-01-16T15:04:55.143Z,28.10
2019-01-16T15:07:38.060Z,30.07
2019-01-16T15:10:28.159Z,27.33
2019-01-16T15:13:15.298Z,24.53
2019-01-16T15:16:14.257Z,28.20
2019-01-16T15:19:00.366Z,29.43
2019-01-16T15:21:47.161Z,26.27
2019-01-16T15:24:31.833Z,26.07
2019-01-16T15:27:17.064Z,23.30
2019-01-16T15:30:03.828Z,24.30
2019-01-16T15:32:49.272Z,27.10
2019-01-16T15:35:23.184Z,24.73
2019-01-16T15:38:10.222Z,33.07
2019-01-16T15:40:55.752Z,24.87
2019-01-16T15:43:43.009Z,31.43
2019-01-16T15:46:30.919Z,29.83
2019-01-16T15:49:15.776Z,32.53
2019-01-16T15:52:13.172Z,30.53
2019-01-16T15:54:58.707Z,33.57
2019-01-16T15:57:41.753Z,32.87
2019-01-16T16:00:36.306Z,30.50
2019-01-16T16:03:21.845Z,29.70
2019-01-16T16:06:07.541Z,29.83
2019-01-16T16:09:09.705Z,21.67
2019-01-16T16:12:11.477Z,29.47
2019-01-16T16:15:16.524Z,30.27
2019-01-16T16:18:01.869Z,33.07
2019-01-16T16:21:00.892Z,31.13
2019-01-16T16:23:43.395Z,27.43
2019-01-16T16:26:39.267Z,28.53
2019-01-16T16:29:28.794Z,29.10
2019-01-16T16:32:14.576Z,28.70
2019-01-16T16:35:00.160Z,30.70
2019-01-16T16:37:56.285Z,28.30
2019-01-16T16:40:42.494Z,28.57
2019-01-16T16:43:34.976Z,28.43
2019-01-16T16:46:09.541Z,31.17
2019-01-16T16:48:56.633Z,26.00
2019-01-16T16:51:49.124Z,28.57
2019-01-16T16:54:51.316Z,29.83
2019-01-16T16:57:56.347Z,30.53
2019-01-16T17:00:42.083Z,26.60
2019-01-16T17:03:27.172Z,23.77
2019-01-16T17:06:16.810Z,26.07
2019-01-16T17:09:02.384Z,25.17
2019-01-16T17:12:01.327Z,24.77
2019-01-16T17:14:45.776Z,23.30
2019-01-16T17:17:31.222Z,20.90
2019-01-16T17:20:30.071Z,22.23
2019-01-16T17:23:10.178Z,24.33
2019-01-16T17:26:06.173Z,26.83
2019-01-16T17:28:48.845Z,24.97
2019-01-16T17:31:32.816Z,27.77
2019-01-16T17:34:28.633Z,25.13
2019-01-16T17:37:30.558Z,24.23
2019-01-16T17:40:08.716Z,28.10
2019-01-16T17:43:04.882Z,31.83
2019-01-16T17:46:00.243Z,30.03
2019-01-16T17:49:05.793Z,29.70
2019-01-16T17:51:55.484Z,28.93
2019-01-16T17:54:40.616Z,37.30
2019-01-16T17:57:26.588Z,34.40
2019-01-16T18:00:19.565Z,33.23
2019-01-16T18:03:06.467Z,34.40
2019-01-16T18:05:52.073Z,32.10
2019-01-16T18:08:37.883Z,31.77
2019-01-16T18:11:23.275Z,36.80
2019-01-16T18:14:10.078Z,33.70
2019-01-16T18:16:55.497Z,32.37
2019-01-16T18:19:44.864Z,37.07
2019-01-16T18:22:34.318Z,34.73
2019-01-16T18:25:24.790Z,34.43
2019-01-16T18:28:04.629Z,38.00
2019-01-16T18:30:50.355Z,31.83
2019-01-16T18:33:55.502Z,33.63
2019-01-16T18:36:42.299Z,34.03
2019-01-16T18:39:23.062Z,35.57
2019-01-16T18:42:22.081Z,32.23
2019-01-16T18:45:07.740Z,31.40
2019-01-16T18:48:06.730Z,26.80
2019-01-16T18:50:52.284Z,32.10
2019-01-16T18:53:37.572Z,32.93
2019-01-16T18:56:25.404Z,26.77
2019-01-16T18:59:15.297Z,30.97
2019-01-16T19:02:04.820Z,33.00
2019-01-16T19:04:50.370Z,29.97
2019-01-16T19:07:52.631Z,31.60
2019-01-16T19:10:48.295Z,34.17
2019-01-16T19:13:31.900Z,28.30
2019-01-16T19:16:24.851Z,28.47
2019-01-16T19:19:20.468Z,26.43
2019-01-16T19:22:19.224Z,30.33
2019-01-16T19:25:18.196Z,30.37
2019-01-16T19:28:05.160Z,27.87
2019-01-16T19:30:50.755Z,32.10
2019-01-16T19:33:40.316Z,30.33
2019-01-16T19:36:31.887Z,31.17
2019-01-16T19:39:33.244Z,28.33
2019-01-16T19:42:18.609Z,29.87
2019-01-16T19:45:01.741Z,28.87
2019-01-16T19:47:41.638Z,26.60
2019-01-16T19:50:19.956Z,25.60
2019-01-16T19:52:57.669Z,25.87
2019-01-16T19:55:44.972Z,29.10
2019-01-16T19:58:31.875Z,27.30
2019-01-16T20:01:06.958Z,27.20
2019-01-16T20:03:59.629Z,27.13
2019-01-16T20:06:49.399Z,27.03
2019-01-16T20:09:41.973Z,23.70
2019-01-16T20:12:17.995Z,26.20
2019-01-16T20:15:11.691Z,28.57
2019-01-16T20:18:13.665Z,24.03
2019-01-16T20:21:18.768Z,23.70
2019-01-16T20:24:04.521Z,26.27
2019-01-16T20:26:57.000Z,26.03
2019-01-16T20:29:46.908Z,24.13
2019-01-16T20:32:36.637Z,24.30
2019-01-16T20:35:13.391Z,23.60
2019-01-16T20:38:10.508Z,22.97
2019-01-16T20:41:15.346Z,23.70
2019-01-16T20:44:10.963Z,24.47
2019-01-16T20:47:04.234Z,24.40
2019-01-16T20:49:57.038Z,27.87
2019-01-16T20:52:43.359Z,27.33
2019-01-16T20:55:27.971Z,26.57
2019-01-16T20:58:13.797Z,27.73
2019-01-16T21:00:55.702Z,26.10
2019-01-16T21:03:45.329Z,25.60
2019-01-16T21:06:38.139Z,28.67
2019-01-16T21:09:15.426Z,28.60
2019-01-16T21:12:14.064Z,27.43
2019-01-16T21:15:00.848Z,23.23
2019-01-16T21:18:06.034Z,30.37
2019-01-16T21:20:51.165Z,26.67
2019-01-16T21:23:37.113Z,25.60
2019-01-16T21:26:22.346Z,25.37
2019-01-16T21:29:07.905Z,19.40
2019-01-16T21:31:53.366Z,12.77
2019-01-16T21:34:46.539Z,5.43
2019-01-16T21:37:48.981Z,6.23
2019-01-16T21:40:46.919Z,3.57
2019-01-16T21:43:31.173Z,4.47
2019-01-16T21:46:24.061Z,4.00
2019-01-16T21:49:25.967Z,2.13
2019-01-16T21:52:12.777Z,2.00
2019-01-16T21:54:50.320Z,5.20
2019-01-16T21:57:43.083Z,5.57
2019-01-16T22:00:32.966Z,4.57
2019-01-16T22:03:12.393Z,2.63
2019-01-16T22:06:01.737Z,3.70
2019-01-16T22:08:44.089Z,5.57
2019-01-16T22:11:21.609Z,4.63
2019-01-16T22:14:14.301Z,3.67
2019-01-16T22:17:04.281Z,2.67
2019-01-16T22:19:49.650Z,2.73
2019-01-16T22:22:29.705Z,5.80
2019-01-16T22:25:14.379Z,3.00
2019-01-16T22:27:49.692Z,4.27
2019-01-16T22:30:52.643Z,4.27
2019-01-16T22:33:38.586Z,3.57
2019-01-16T22:36:37.293Z,5.47
2019-01-16T22:39:22.120Z,5.13
2019-01-16T22:42:04.300Z,3.90
2019-01-16T22:45:03.319Z,2.63
2019-01-16T22:47:49.072Z,6.00
2019-01-16T22:50:34.320Z,2.00
2019-01-16T22:53:36.354Z,3.90
2019-01-16T22:56:32.283Z,3.33
2019-01-16T22:59:21.762Z,2.90
2019-01-16T23:02:07.883Z,4.30
2019-01-16T23:04:49.040Z,3.10
2019-01-16T23:07:34.633Z,2.47
2019-01-16T23:10:39.508Z,3.57
2019-01-16T23:13:34.030Z,3.57
2019-01-16T23:16:19.924Z,5.30
2019-01-16T23:19:09.359Z,3.87
2019-01-16T23:22:02.309Z,2.00
2019-01-16T23:24:52.105Z,2.63
2019-01-16T23:27:37.735Z,2.57
2019-01-16T23:30:45.917Z,3.40
2019-01-16T23:33:31.458Z,2.37
2019-01-16T23:36:12.594Z,2.60
2019-01-16T23:38:50.129Z,1.90
2019-01-16T23:41:48.779Z,2.07
2019-01-16T23:44:54.074Z,1.77
2019-01-16T23:47:39.275Z,1.60
2019-01-16T23:50:26.701Z,2.97
2019-01-16T23:53:16.408Z,4.87
2019-01-16T23:56:02.389Z,3.07
2019-01-16T23:58:46.352Z,2.47
